Time;durP1;ratioP1;P1;durP2;ratioP2;P2;SDS_P1;SDS_P2;PMS_P1;PMS_P2;Temp;Humidity;BMP_temperature;BMP_pressure;BME280_temperature;BME280_humidity;BME280_pressure;Samples;Min_cycle;Max_cycle;Signal;HPM_P1;HPM_P2
2022/12/22 03:26:29;;;;;;;;;;;8.50;99.90;;;;;;5068648;28;19929;-75
2022/12/22 03:28:55;;;;;;;;;;;8.60;99.90;;;;;;5065169;28;19928;-75
2022/12/22 03:31:20;;;;;;;;;;;8.60;99.90;;;;;;5064372;28;20543;-75
2022/12/22 03:33:46;;;;;;;;;;;8.60;99.90;;;;;;5047809;28;19951;-75
2022/12/22 03:36:12;;;;;;;;;;;8.60;99.90;;;;;;5063630;28;21217;-75
2022/12/22 03:38:37;;;;;;;;;;;8.60;99.90;;;;;;5067080;28;19939;-75
2022/12/22 03:41:03;;;;;;;;;;;8.50;99.90;;;;;;5061181;28;19948;-75
2022/12/22 03:46:29;;;;;;;;;;;8.50;99.90;;;;;;5062194;28;19950;-75
2022/12/22 03:49:11;;;;;;;;;;;8.60;99.90;;;;;;5064366;28;19929;-75
2022/12/22 03:51:39;;;;;;;;;;;8.60;99.90;;;;;;5063653;28;20066;-75
2022/12/22 03:54:04;;;;;;;;;;;8.60;99.90;;;;;;5067362;28;19937;-74
2022/12/22 03:56:30;;;;;;;;;;;8.50;99.90;;;;;;5069226;28;19925;-74
2022/12/22 03:58:56;;;;;;;;;;;8.50;99.90;;;;;;5067948;28;20330;-74
2022/12/22 04:01:21;;;;;;;;;;;8.50;99.90;;;;;;5044339;28;19986;-74
2022/12/22 04:03:47;;;;;;;;;;;8.60;99.90;;;;;;5064984;28;19938;-74
2022/12/22 04:06:13;;;;;;;;;;;8.60;99.90;;;;;;5069709;28;19929;-74
2022/12/22 04:08:38;;;;;;;;;;;8.50;99.90;;;;;;5062435;28;19947;-74
2022/12/22 04:13:48;;;;;;;;;;;8.50;99.90;;;;;;5066400;28;19940;-74
2022/12/22 04:16:14;;;;;;;;;;;8.50;99.90;;;;;;5068667;28;19928;-74
2022/12/22 04:18:39;;;;;;;;;;;8.50;99.90;;;;;;5066916;28;20277;-75
2022/12/22 04:21:05;;;;;;;;;;;8.50;99.90;;;;;;5062701;28;19932;-75
2022/12/22 04:23:30;;;;;;;;;;;8.50;99.90;;;;;;5067999;28;19959;-75
2022/12/22 04:25:56;;;;;;;;;;;8.50;99.90;;;;;;5070053;28;19928;-75
2022/12/22 04:28:22;;;;;;;;;;;8.50;99.90;;;;;;5066529;28;20552;-75
2022/12/22 04:30:48;;;;;;;;;;;8.50;99.90;;;;;;5050060;28;19958;-74
2022/12/22 04:33:14;;;;;;;;;;;8.50;99.90;;;;;;5047984;28;19933;-75
2022/12/22 04:35:39;;;;;;;;;;;8.50;99.90;;;;;;5067884;28;19924;-75
2022/12/22 04:38:05;;;;;;;;;;;8.50;99.90;;;;;;5051315;28;19936;-75
2022/12/22 04:40:31;;;;;;;;;;;8.50;99.90;;;;;;5049427;28;19935;-75
2022/12/22 04:42:56;;;;;;;;;;;8.50;99.90;;;;;;5064519;28;19928;-75
2022/12/22 04:45:22;;;;;;;;;;;8.50;99.90;;;;;;5065758;28;19929;-75
2022/12/22 04:47:47;;;;;;;;;;;8.50;99.90;;;;;;5070987;28;19986;-75
2022/12/22 04:50:13;;;;;;;;;;;8.50;99.90;;;;;;5057931;28;19925;-75
2022/12/22 04:52:38;;;;;;;;;;;8.50;99.90;;;;;;5071030;28;19950;-75
2022/12/22 04:55:05;;;;;;;;;;;8.50;99.90;;;;;;5069968;28;19924;-74
2022/12/22 04:57:31;;;;;;;;;;;8.50;99.90;;;;;;5048330;28;20003;-74
2022/12/22 04:59:56;;;;;;;;;;;8.50;99.90;;;;;;5069291;28;19928;-74
2022/12/22 05:02:22;;;;;;;;;;;8.50;99.90;;;;;;5068217;28;19938;-74
2022/12/22 05:04:47;;;;;;;;;;;8.50;99.90;;;;;;5032839;28;19938;-74
2022/12/22 05:07:13;;;;;;;;;;;8.50;99.90;;;;;;5065450;28;19928;-74
2022/12/22 05:09:38;;;;;;;;;;;8.50;99.90;;;;;;5050013;28;20371;-74
2022/12/22 05:12:53;;;;;;;;;;;8.50;99.90;;;;;;5062069;28;19928;-74
2022/12/22 05:14:50;;;;;;;;;;;8.50;99.90;;;;;;5066732;28;19924;-75
2022/12/22 05:17:15;;;;;;;;;;;8.50;99.90;;;;;;5076791;28;20401;-74
2022/12/22 05:19:41;;;;;;;;;;;8.50;99.90;;;;;;5063706;28;19991;-75
2022/12/22 05:22:06;;;;;;;;;;;8.50;99.90;;;;;;5065826;28;19924;-75
2022/12/22 05:24:32;;;;;;;;;;;8.60;99.90;;;;;;5063684;28;20047;-75
2022/12/22 05:26:57;;;;;;;;;;;8.50;99.90;;;;;;5052440;28;19950;-75
2022/12/22 05:29:23;;;;;;;;;;;8.50;99.90;;;;;;5035277;28;19925;-75
2022/12/22 05:31:49;;;;;;;;;;;8.50;99.90;;;;;;5045776;28;20259;-75
2022/12/22 05:34:14;;;;;;;;;;;8.50;99.90;;;;;;5046519;28;19936;-77
2022/12/22 05:36:40;;;;;;;;;;;8.50;99.90;;;;;;5065566;28;19925;-78
2022/12/22 05:39:05;;;;;;;;;;;8.50;99.90;;;;;;5070304;28;19924;-78
2022/12/22 05:41:31;;;;;;;;;;;8.50;99.90;;;;;;5065308;28;20007;-77
2022/12/22 05:43:56;;;;;;;;;;;8.50;99.90;;;;;;5065076;28;19924;-78
2022/12/22 05:46:22;;;;;;;;;;;8.50;99.90;;;;;;5059135;28;19929;-78
2022/12/22 05:48:48;;;;;;;;;;;8.50;99.90;;;;;;5069169;28;19925;-77
2022/12/22 05:51:13;;;;;;;;;;;8.50;99.90;;;;;;5063903;28;19936;-77
2022/12/22 05:53:39;;;;;;;;;;;8.50;99.90;;;;;;5045932;28;19939;-77
2022/12/22 05:56:05;;;;;;;;;;;8.50;99.90;;;;;;5068299;28;19986;-78
2022/12/22 05:58:31;;;;;;;;;;;8.50;99.90;;;;;;5062033;28;19956;-78
2022/12/22 06:00:58;;;;;;;;;;;8.50;99.90;;;;;;5069513;28;19929;-77
2022/12/22 06:03:24;;;;;;;;;;;8.50;99.90;;;;;;5068726;28;19924;-77
2022/12/22 06:05:49;;;;;;;;;;;8.50;99.90;;;;;;5072065;28;19975;-77
2022/12/22 06:08:15;;;;;;;;;;;8.50;99.90;;;;;;5070957;28;19936;-77
2022/12/22 06:10:41;;;;;;;;;;;8.50;99.90;;;;;;5078004;28;19932;-76
2022/12/22 06:13:06;;;;;;;;;;;8.50;99.90;;;;;;5078078;28;20470;-77
2022/12/22 06:15:32;;;;;;;;;;;8.50;99.90;;;;;;5074706;28;19925;-78
2022/12/22 06:17:57;;;;;;;;;;;8.50;99.90;;;;;;5047803;28;19924;-77
2022/12/22 06:20:23;;;;;;;;;;;8.50;99.90;;;;;;5068458;28;19925;-77
2022/12/22 06:22:48;;;;;;;;;;;8.50;99.90;;;;;;5076355;28;19928;-77
2022/12/22 06:25:14;;;;;;;;;;;8.50;99.90;;;;;;5070918;28;19935;-79
2022/12/22 06:27:40;;;;;;;;;;;8.50;99.90;;;;;;5073936;28;19925;-78
2022/12/22 06:30:06;;;;;;;;;;;8.50;99.90;;;;;;5077036;28;19932;-78
2022/12/22 06:32:34;;;;;;;;;;;8.50;99.90;;;;;;5075399;28;21315;-78
2022/12/22 06:35:00;;;;;;;;;;;8.40;99.90;;;;;;5077825;28;19935;-78
2022/12/22 06:37:25;;;;;;;;;;;8.40;99.90;;;;;;5077295;28;20322;-78
2022/12/22 06:39:51;;;;;;;;;;;8.40;99.90;;;;;;5077498;28;19925;-80
2022/12/22 06:45:01;;;;;;;;;;;8.30;99.90;;;;;;5075324;28;20410;-78
2022/12/22 06:47:26;;;;;;;;;;;8.30;99.90;;;;;;5064307;28;19947;-78
2022/12/22 06:49:52;;;;;;;;;;;8.20;99.90;;;;;;5075315;28;19933;-78
2022/12/22 06:52:18;;;;;;;;;;;8.20;99.90;;;;;;5074119;28;19925;-78
2022/12/22 06:54:43;;;;;;;;;;;8.10;99.90;;;;;;5073932;28;19929;-78
2022/12/22 06:57:09;;;;;;;;;;;8.00;99.90;;;;;;5058977;28;19983;-78
2022/12/22 06:59:34;;;;;;;;;;;8.00;99.90;;;;;;5075928;28;19932;-78
2022/12/22 07:02:00;;;;;;;;;;;7.90;99.90;;;;;;5072751;28;19929;-78
2022/12/22 07:04:25;;;;;;;;;;;7.80;99.90;;;;;;5065197;28;19939;-78
2022/12/22 07:06:51;;;;;;;;;;;7.70;99.90;;;;;;5069615;28;19928;-77
2022/12/22 07:09:16;;;;;;;;;;;7.60;99.90;;;;;;5076519;28;19932;-77
2022/12/22 07:11:42;;;;;;;;;;;7.40;99.90;;;;;;5060455;28;19929;-78
2022/12/22 07:14:07;;;;;;;;;;;7.30;99.90;;;;;;5047205;28;20063;-77
2022/12/22 07:16:33;;;;;;;;;;;7.20;99.90;;;;;;5073630;28;19928;-78
2022/12/22 07:18:58;;;;;;;;;;;7.10;99.90;;;;;;5074426;28;19983;-78
2022/12/22 07:21:24;;;;;;;;;;;7.00;99.90;;;;;;5073140;28;19986;-78
2022/12/22 07:23:50;;;;;;;;;;;6.90;99.90;;;;;;5076137;28;19947;-78
2022/12/22 07:26:15;;;;;;;;;;;6.80;99.90;;;;;;5075150;28;19931;-78
2022/12/22 07:28:41;;;;;;;;;;;6.80;99.90;;;;;;5074398;28;19924;-78
2022/12/22 07:31:07;;;;;;;;;;;6.70;99.90;;;;;;5063153;28;19932;-78
2022/12/22 07:33:33;;;;;;;;;;;6.60;99.90;;;;;;5053275;28;19937;-78
2022/12/22 07:36:06;;;;;;;;;;;6.60;99.90;;;;;;5064072;28;19928;-78
2022/12/22 07:38:33;;;;;;;;;;;6.50;99.90;;;;;;5064520;28;20066;-77
2022/12/22 07:40:59;;;;;;;;;;;6.50;99.90;;;;;;5068439;28;19924;-78
2022/12/22 07:43:24;;;;;;;;;;;6.40;99.90;;;;;;5075938;28;20280;-78
2022/12/22 07:45:50;;;;;;;;;;;6.50;99.90;;;;;;5073878;28;19933;-77
2022/12/22 07:51:02;;;;;;;;;;;6.60;99.90;;;;;;5076671;28;19925;-77
2022/12/22 07:53:27;;;;;;;;;;;6.70;99.90;;;;;;5073874;28;19924;-78
2022/12/22 07:55:53;;;;;;;;;;;6.70;99.90;;;;;;5072624;28;19935;-78
2022/12/22 07:58:18;;;;;;;;;;;6.70;99.90;;;;;;5071647;28;19925;-77
2022/12/22 08:00:44;;;;;;;;;;;6.80;99.90;;;;;;5071016;28;19946;-78
2022/12/22 08:03:09;;;;;;;;;;;6.80;99.90;;;;;;5055001;28;19971;-78
2022/12/22 08:05:36;;;;;;;;;;;6.80;99.90;;;;;;5071102;28;19935;-78
2022/12/22 08:08:01;;;;;;;;;;;6.80;99.90;;;;;;5068529;28;20070;-78
2022/12/22 08:10:27;;;;;;;;;;;6.80;99.90;;;;;;5072947;28;19970;-78
2022/12/22 08:12:52;;;;;;;;;;;6.90;99.90;;;;;;5069937;28;20288;-77
2022/12/22 08:15:18;;;;;;;;;;;6.90;99.90;;;;;;5073032;28;19979;-78
2022/12/22 08:17:43;;;;;;;;;;;6.90;99.90;;;;;;5071590;28;19996;-77
2022/12/22 08:20:09;;;;;;;;;;;6.90;99.90;;;;;;5074205;28;20273;-77
2022/12/22 08:22:35;;;;;;;;;;;7.00;99.90;;;;;;5070578;28;19935;-77
2022/12/22 08:25:00;;;;;;;;;;;6.90;99.90;;;;;;5072212;28;19929;-77
2022/12/22 08:27:30;;;;;;;;;;;7.00;99.90;;;;;;5070583;28;19984;-77
2022/12/22 08:30:00;;;;;;;;;;;6.90;99.90;;;;;;5070652;28;19929;-77
2022/12/22 08:32:26;;;;;;;;;;;6.90;99.90;;;;;;5071405;28;19970;-78
2022/12/22 08:34:52;;;;;;;;;;;7.00;99.90;;;;;;5070069;28;19924;-78
2022/12/22 08:37:19;;;;;;;;;;;7.00;99.90;;;;;;5069840;28;19928;-77
2022/12/22 08:39:47;;;;;;;;;;;7.00;99.90;;;;;;5068188;28;19935;-78
2022/12/22 08:42:14;;;;;;;;;;;7.00;99.90;;;;;;5072634;28;19925;-77
2022/12/22 08:44:39;;;;;;;;;;;7.00;99.90;;;;;;5064372;28;19932;-77
2022/12/22 08:47:05;;;;;;;;;;;7.10;99.90;;;;;;5061244;28;19968;-77
2022/12/22 08:49:31;;;;;;;;;;;7.10;99.90;;;;;;5046955;28;19925;-78
2022/12/22 08:51:57;;;;;;;;;;;7.10;99.90;;;;;;5063428;28;19983;-78
2022/12/22 08:54:23;;;;;;;;;;;7.10;99.90;;;;;;5068260;28;19933;-78
2022/12/22 08:56:48;;;;;;;;;;;7.00;99.90;;;;;;5067497;28;20040;-78
2022/12/22 08:59:14;;;;;;;;;;;7.00;99.90;;;;;;5069778;28;21947;-77
2022/12/22 09:01:46;;;;;;;;;;;7.00;99.90;;;;;;5061032;28;20664;-77
2022/12/22 09:04:13;;;;;;;;;;;7.00;99.90;;;;;;5060610;28;19924;-77
2022/12/22 09:06:38;;;;;;;;;;;6.90;99.90;;;;;;5055764;28;19924;-77
2022/12/22 09:09:05;;;;;;;;;;;6.90;99.90;;;;;;5068341;28;19929;-77
2022/12/22 09:11:30;;;;;;;;;;;6.90;99.90;;;;;;5069309;28;20023;-77
2022/12/22 09:13:57;;;;;;;;;;;6.90;99.90;;;;;;5069232;28;19959;-77
2022/12/22 09:16:23;;;;;;;;;;;6.90;99.90;;;;;;5078423;28;19939;-77
2022/12/22 09:18:49;;;;;;;;;;;6.90;99.90;;;;;;5075773;28;19924;-77
2022/12/22 09:21:15;;;;;;;;;;;7.00;99.90;;;;;;5066664;28;20615;-78
2022/12/22 09:23:40;;;;;;;;;;;7.00;99.90;;;;;;5061881;28;20010;-78
2022/12/22 09:26:07;;;;;;;;;;;7.00;99.90;;;;;;5077668;28;19929;-78
2022/12/22 09:28:33;;;;;;;;;;;7.00;99.90;;;;;;5065651;28;19928;-78
2022/12/22 09:30:58;;;;;;;;;;;7.00;99.90;;;;;;5065506;28;19935;-78
2022/12/22 09:33:25;;;;;;;;;;;6.90;99.90;;;;;;5059441;28;19928;-78
2022/12/22 09:35:51;;;;;;;;;;;7.00;99.90;;;;;;5063370;28;19932;-78
2022/12/22 09:38:16;;;;;;;;;;;7.00;99.90;;;;;;5080373;28;19992;-78
2022/12/22 09:40:42;;;;;;;;;;;7.00;99.90;;;;;;5074736;28;19924;-77
2022/12/22 09:43:09;;;;;;;;;;;7.00;99.90;;;;;;5067995;28;19933;-78
2022/12/22 09:45:35;;;;;;;;;;;7.00;99.90;;;;;;5076673;28;19925;-77
2022/12/22 09:48:01;;;;;;;;;;;7.00;99.90;;;;;;5074515;28;19924;-78
2022/12/22 09:50:27;;;;;;;;;;;7.00;99.90;;;;;;5070692;28;20030;-77
2022/12/22 09:52:55;;;;;;;;;;;7.10;99.90;;;;;;5074445;28;19931;-78
2022/12/22 09:55:20;;;;;;;;;;;7.10;99.90;;;;;;5073800;28;19940;-78
2022/12/22 09:57:46;;;;;;;;;;;7.10;99.90;;;;;;5077536;28;19925;-77
2022/12/22 10:00:13;;;;;;;;;;;7.10;99.90;;;;;;5077023;28;19931;-78
2022/12/22 10:02:54;;;;;;;;;;;7.20;99.90;;;;;;5071259;28;19929;-78
2022/12/22 10:05:37;;;;;;;;;;;7.20;99.90;;;;;;5073021;28;19929;-78
2022/12/22 10:08:10;;;;;;;;;;;7.20;99.90;;;;;;5072046;28;20502;-78
2022/12/22 10:10:36;;;;;;;;;;;7.20;99.90;;;;;;5072472;28;19925;-77
2022/12/22 10:13:02;;;;;;;;;;;7.20;99.90;;;;;;5072329;28;19924;-78
2022/12/22 10:15:37;;;;;;;;;;;7.10;99.90;;;;;;5075035;28;19931;-78
2022/12/22 10:18:23;;;;;;;;;;;7.10;99.90;;;;;;5076025;28;19993;-78
2022/12/22 10:21:03;;;;;;;;;;;7.00;99.90;;;;;;5073752;28;19925;-77
2022/12/22 10:23:29;;;;;;;;;;;7.00;99.90;;;;;;5073582;28;19931;-75
2022/12/22 10:25:54;;;;;;;;;;;7.00;99.90;;;;;;5075289;28;19964;-76
2022/12/22 10:28:25;;;;;;;;;;;7.10;99.90;;;;;;5076608;28;21737;-78
2022/12/22 10:31:08;;;;;;;;;;;7.10;99.90;;;;;;5077208;28;19924;-78
2022/12/22 10:33:34;;;;;;;;;;;7.10;99.90;;;;;;5075264;28;19935;-77
2022/12/22 10:36:00;;;;;;;;;;;7.10;99.90;;;;;;5074057;28;19988;-78
2022/12/22 10:38:27;;;;;;;;;;;7.10;99.90;;;;;;5075436;28;19947;-78
2022/12/22 10:40:54;;;;;;;;;;;7.10;99.90;;;;;;5073992;28;19988;-78
2022/12/22 10:43:22;;;;;;;;;;;7.10;99.90;;;;;;5074412;28;19925;-77
2022/12/22 10:45:48;;;;;;;;;;;7.10;99.90;;;;;;5070430;28;19924;-77
2022/12/22 10:48:14;;;;;;;;;;;7.10;99.90;;;;;;5071725;28;19946;-78
2022/12/22 10:50:46;;;;;;;;;;;7.20;99.90;;;;;;5074143;28;20686;-77
2022/12/22 10:53:12;;;;;;;;;;;7.20;99.90;;;;;;5066177;28;20399;-77
2022/12/22 10:55:38;;;;;;;;;;;7.10;99.90;;;;;;5072935;28;19967;-75
2022/12/22 10:58:09;;;;;;;;;;;7.20;99.90;;;;;;5076033;28;21617;-77
2022/12/22 11:00:36;;;;;;;;;;;7.20;99.90;;;;;;5090581;28;19928;-77
2022/12/22 11:03:02;;;;;;;;;;;7.30;99.90;;;;;;5072901;28;19974;-77
2022/12/22 11:05:28;;;;;;;;;;;7.30;99.90;;;;;;5058027;28;19939;-77
2022/12/22 11:07:54;;;;;;;;;;;7.30;99.90;;;;;;5069376;28;20515;-77
2022/12/22 11:10:23;;;;;;;;;;;7.40;99.90;;;;;;5055770;28;19985;-77
2022/12/22 11:13:18;;;;;;;;;;;7.50;99.90;;;;;;5074843;28;19928;-77
2022/12/22 11:16:07;;;;;;;;;;;7.50;99.90;;;;;;5016594;28;19984;-77
2022/12/22 11:18:42;;;;;;;;;;;7.60;99.90;;;;;;5074426;28;19940;-77
2022/12/22 11:21:10;;;;;;;;;;;7.60;99.90;;;;;;5055353;28;19935;-77
2022/12/22 11:23:36;;;;;;;;;;;7.60;99.90;;;;;;5071899;28;19968;-77
2022/12/22 11:26:12;;;;;;;;;;;7.70;99.90;;;;;;5058580;28;19932;-77
2022/12/22 11:28:56;;;;;;;;;;;7.70;99.90;;;;;;5066951;28;19999;-76
2022/12/22 11:31:25;;;;;;;;;;;7.70;99.90;;;;;;5071549;28;19924;-76
2022/12/22 11:33:57;;;;;;;;;;;7.80;99.90;;;;;;5074138;28;20002;-77
2022/12/22 11:36:41;;;;;;;;;;;7.80;99.90;;;;;;5073659;28;19959;-77
2022/12/22 11:39:12;;;;;;;;;;;7.90;99.90;;;;;;5072504;28;19928;-77
2022/12/22 11:41:56;;;;;;;;;;;7.90;99.90;;;;;;5080337;28;19928;-77
2022/12/22 11:44:34;;;;;;;;;;;8.00;99.90;;;;;;5080214;28;19946;-77
2022/12/22 11:47:10;;;;;;;;;;;8.00;99.90;;;;;;5079286;28;19925;-77
2022/12/22 11:49:39;;;;;;;;;;;8.00;99.90;;;;;;5074605;28;19924;-77
2022/12/22 11:52:13;;;;;;;;;;;8.10;99.90;;;;;;5075390;28;19929;-77
2022/12/22 11:54:58;;;;;;;;;;;8.10;99.90;;;;;;5074394;28;20357;-77
2022/12/22 11:57:41;;;;;;;;;;;8.20;99.90;;;;;;5072497;28;19928;-77
2022/12/22 12:00:07;;;;;;;;;;;8.20;99.90;;;;;;5078315;28;20295;-77
2022/12/22 12:02:48;;;;;;;;;;;8.30;99.90;;;;;;5078883;28;19963;-77
2022/12/22 12:05:20;;;;;;;;;;;8.30;99.90;;;;;;5062738;28;19924;-77
2022/12/22 12:08:01;;;;;;;;;;;8.40;99.90;;;;;;5062004;28;19928;-77
2022/12/22 12:10:47;;;;;;;;;;;8.40;99.90;;;;;;5078915;28;19958;-77
2022/12/22 12:13:13;;;;;;;;;;;8.50;99.90;;;;;;5066253;28;19936;-77
2022/12/22 12:15:42;;;;;;;;;;;8.60;99.90;;;;;;5079821;28;19995;-77
2022/12/22 12:18:30;;;;;;;;;;;8.60;99.90;;;;;;5079959;28;19972;-77
2022/12/22 12:20:59;;;;;;;;;;;8.60;99.90;;;;;;5057786;28;19932;-77
2022/12/22 12:23:51;;;;;;;;;;;8.60;99.90;;;;;;5048098;28;19928;-77
2022/12/22 12:26:29;;;;;;;;;;;8.70;99.90;;;;;;5078794;28;19987;-78
2022/12/22 12:29:14;;;;;;;;;;;8.70;99.90;;;;;;5073237;28;19924;-77
2022/12/22 12:31:46;;;;;;;;;;;8.70;99.90;;;;;;5070750;28;19951;-77
2022/12/22 12:34:14;;;;;;;;;;;8.80;99.90;;;;;;5073515;28;19925;-77
2022/12/22 12:36:43;;;;;;;;;;;8.90;99.90;;;;;;5078319;28;19925;-77
2022/12/22 12:39:08;;;;;;;;;;;8.90;99.90;;;;;;5080572;28;19928;-77
2022/12/22 12:41:43;;;;;;;;;;;9.00;99.90;;;;;;5076889;28;20019;-77
2022/12/22 12:44:13;;;;;;;;;;;9.10;99.90;;;;;;5078018;28;19924;-77
2022/12/22 12:46:51;;;;;;;;;;;9.20;99.90;;;;;;5078478;28;19925;-77
2022/12/22 12:49:28;;;;;;;;;;;9.20;99.90;;;;;;5075336;28;19928;-78
2022/12/22 12:51:54;;;;;;;;;;;9.20;99.90;;;;;;5075302;28;19988;-78
2022/12/22 12:54:21;;;;;;;;;;;9.20;99.90;;;;;;5079204;28;19924;-77
2022/12/22 12:56:53;;;;;;;;;;;9.20;99.90;;;;;;5081166;28;19932;-78
2022/12/22 12:59:37;;;;;;;;;;;9.20;99.90;;;;;;5076971;28;19974;-75
2022/12/22 13:02:03;;;;;;;;;;;9.20;99.90;;;;;;5076690;28;19932;-78
2022/12/22 13:04:47;;;;;;;;;;;9.20;99.90;;;;;;5078196;28;19982;-78
2022/12/22 13:07:13;;;;;;;;;;;9.10;99.90;;;;;;5077769;28;19930;-78
2022/12/22 13:09:58;;;;;;;;;;;9.10;99.90;;;;;;5045088;28;19946;-77
2022/12/22 13:12:40;;;;;;;;;;;9.20;99.90;;;;;;5077910;28;20472;-78
2022/12/22 13:15:25;;;;;;;;;;;9.20;99.90;;;;;;5059985;28;20284;-78
2022/12/22 13:17:50;;;;;;;;;;;9.10;99.90;;;;;;5062243;28;19925;-77
2022/12/22 13:20:21;;;;;;;;;;;9.10;99.90;;;;;;5079950;28;20341;-78
2022/12/22 13:22:50;;;;;;;;;;;9.10;99.90;;;;;;5084154;28;19970;-78
2022/12/22 13:25:17;;;;;;;;;;;9.10;99.90;;;;;;5080632;28;19954;-78
2022/12/22 13:27:42;;;;;;;;;;;9.10;99.90;;;;;;5082147;28;20058;-78
2022/12/22 13:30:15;;;;;;;;;;;9.10;99.90;;;;;;5065690;28;20449;-78
2022/12/22 13:32:41;;;;;;;;;;;9.10;99.90;;;;;;5082013;28;20013;-78
2022/12/22 13:35:30;;;;;;;;;;;9.10;99.90;;;;;;5081176;28;19928;-78
2022/12/22 13:37:56;;;;;;;;;;;9.00;99.90;;;;;;5073795;28;19931;-78
2022/12/22 13:40:27;;;;;;;;;;;9.00;99.90;;;;;;5081646;28;19980;-78
2022/12/22 13:42:58;;;;;;;;;;;8.90;99.90;;;;;;5082161;28;19932;-78
2022/12/22 13:45:36;;;;;;;;;;;8.90;99.90;;;;;;5077126;28;20011;-78
2022/12/22 13:48:05;;;;;;;;;;;8.80;99.90;;;;;;5081953;28;20030;-77
2022/12/22 13:50:33;;;;;;;;;;;8.80;99.90;;;;;;5082923;28;19924;-77
2022/12/22 13:53:00;;;;;;;;;;;8.70;99.90;;;;;;5083203;28;19989;-77
2022/12/22 13:55:28;;;;;;;;;;;8.70;99.90;;;;;;5081802;28;19974;-78
2022/12/22 13:57:54;;;;;;;;;;;8.70;99.90;;;;;;5082912;28;19964;-78
2022/12/22 14:00:22;;;;;;;;;;;8.70;99.90;;;;;;5081880;28;19928;-78
2022/12/22 14:02:47;;;;;;;;;;;8.70;99.90;;;;;;5064663;28;19924;-77
2022/12/22 14:05:14;;;;;;;;;;;8.70;99.90;;;;;;5081899;28;19939;-78
2022/12/22 14:07:55;;;;;;;;;;;8.60;99.90;;;;;;5079246;28;19924;-78
2022/12/22 14:10:29;;;;;;;;;;;8.60;99.90;;;;;;5071686;28;19987;-78
2022/12/22 14:12:55;;;;;;;;;;;8.50;99.90;;;;;;5064340;28;19924;-78
2022/12/22 14:15:20;;;;;;;;;;;8.50;99.90;;;;;;5081184;28;19979;-78
2022/12/22 14:17:46;;;;;;;;;;;8.40;99.90;;;;;;5063892;28;19925;-77
2022/12/22 14:20:18;;;;;;;;;;;8.40;99.90;;;;;;5064530;28;19992;-77
2022/12/22 14:22:50;;;;;;;;;;;8.40;99.90;;;;;;5064568;28;19981;-78
2022/12/22 14:25:17;;;;;;;;;;;8.50;99.90;;;;;;5080971;28;19994;-78
2022/12/22 14:27:42;;;;;;;;;;;8.50;99.90;;;;;;5079887;28;19963;-78
2022/12/22 14:30:16;;;;;;;;;;;8.50;99.90;;;;;;5082060;28;19924;-77
2022/12/22 14:32:43;;;;;;;;;;;8.60;99.90;;;;;;5064279;28;19964;-78
2022/12/22 14:35:21;;;;;;;;;;;8.50;99.90;;;;;;5079765;28;19967;-78
2022/12/22 14:37:54;;;;;;;;;;;8.50;99.90;;;;;;5080828;28;19929;-78
2022/12/22 14:40:37;;;;;;;;;;;8.50;99.90;;;;;;5080345;28;20821;-78
2022/12/22 14:43:05;;;;;;;;;;;8.50;99.90;;;;;;5064353;28;20043;-78
2022/12/22 14:45:30;;;;;;;;;;;8.50;99.90;;;;;;5063020;28;20031;-78
2022/12/22 14:47:56;;;;;;;;;;;8.50;99.90;;;;;;5072298;28;20268;-78
2022/12/22 14:50:26;;;;;;;;;;;8.40;99.90;;;;;;5080343;28;19928;-78
2022/12/22 14:52:56;;;;;;;;;;;8.30;99.90;;;;;;5064448;28;19925;-78
2022/12/22 14:55:36;;;;;;;;;;;8.30;99.90;;;;;;5063798;28;19925;-77
2022/12/22 14:58:01;;;;;;;;;;;8.30;99.90;;;;;;5080387;28;19924;-78
2022/12/22 15:00:32;;;;;;;;;;;8.30;99.90;;;;;;5079342;28;19925;-78
2022/12/22 15:02:59;;;;;;;;;;;8.20;99.90;;;;;;5063368;28;20007;-78
2022/12/22 15:05:31;;;;;;;;;;;8.20;99.90;;;;;;5080608;28;20425;-78
2022/12/22 15:07:57;;;;;;;;;;;8.20;99.90;;;;;;5081441;28;20315;-78
2022/12/22 15:10:24;;;;;;;;;;;8.20;99.90;;;;;;5062060;28;20005;-77
2022/12/22 15:12:51;;;;;;;;;;;8.20;99.90;;;;;;5080013;28;19928;-77
2022/12/22 15:15:18;;;;;;;;;;;8.20;99.90;;;;;;5080526;28;19928;-78
2022/12/22 15:17:45;;;;;;;;;;;8.20;99.90;;;;;;5081823;28;20006;-78
2022/12/22 15:20:21;;;;;;;;;;;8.20;99.90;;;;;;5079387;28;20295;-77
2022/12/22 15:22:46;;;;;;;;;;;8.20;99.90;;;;;;5080346;28;19924;-77
2022/12/22 15:25:17;;;;;;;;;;;8.20;99.90;;;;;;5079884;28;19998;-77
2022/12/22 15:27:43;;;;;;;;;;;8.20;99.90;;;;;;5079765;28;19932;-78
2022/12/22 15:30:09;;;;;;;;;;;8.20;99.90;;;;;;5080187;28;20007;-77
2022/12/22 15:32:35;;;;;;;;;;;8.20;99.90;;;;;;5081303;28;19924;-77
2022/12/22 15:35:02;;;;;;;;;;;8.20;99.90;;;;;;5079937;28;19935;-77
2022/12/22 15:37:28;;;;;;;;;;;8.30;99.90;;;;;;5081175;28;19925;-77
2022/12/22 15:39:53;;;;;;;;;;;8.20;99.90;;;;;;5079844;28;19928;-78
2022/12/22 15:42:19;;;;;;;;;;;8.30;99.90;;;;;;5077076;28;19960;-77
2022/12/22 15:44:44;;;;;;;;;;;8.20;99.90;;;;;;5080892;28;19988;-78
2022/12/22 15:47:10;;;;;;;;;;;8.20;99.90;;;;;;5078783;28;19952;-77
2022/12/22 15:49:36;;;;;;;;;;;8.20;99.90;;;;;;5080307;28;19924;-77
2022/12/22 15:52:02;;;;;;;;;;;8.20;99.90;;;;;;5074935;28;19925;-77
2022/12/22 15:54:29;;;;;;;;;;;8.10;99.90;;;;;;5070606;28;19929;-77
2022/12/22 15:56:55;;;;;;;;;;;8.10;99.90;;;;;;5080783;28;19925;-77
2022/12/22 15:59:25;;;;;;;;;;;8.10;99.90;;;;;;5062714;28;19951;-77
2022/12/22 16:01:51;;;;;;;;;;;8.10;99.90;;;;;;5077266;28;19928;-77
2022/12/22 16:04:17;;;;;;;;;;;8.00;99.90;;;;;;5075449;28;19925;-80
2022/12/22 16:06:43;;;;;;;;;;;8.00;99.90;;;;;;5068311;28;19983;-78
2022/12/22 16:09:15;;;;;;;;;;;8.00;99.90;;;;;;5079588;28;19928;-78
2022/12/22 16:11:40;;;;;;;;;;;8.10;99.90;;;;;;5077134;28;19924;-78
2022/12/22 16:14:09;;;;;;;;;;;8.10;99.90;;;;;;5077527;28;19951;-78
2022/12/22 16:16:34;;;;;;;;;;;8.00;99.90;;;;;;5078337;28;19925;-79
2022/12/22 16:19:00;;;;;;;;;;;8.00;99.90;;;;;;5049470;28;19985;-78
2022/12/22 16:21:28;;;;;;;;;;;8.00;99.90;;;;;;5080109;28;19928;-78
2022/12/22 16:23:54;;;;;;;;;;;8.00;99.90;;;;;;5079910;28;20050;-78
2022/12/22 16:26:20;;;;;;;;;;;8.00;99.90;;;;;;5080690;28;19924;-78
2022/12/22 16:28:46;;;;;;;;;;;7.90;99.90;;;;;;5077503;28;19932;-78
2022/12/22 16:31:19;;;;;;;;;;;7.90;99.90;;;;;;5078985;28;19929;-78
2022/12/22 16:33:47;;;;;;;;;;;7.90;99.90;;;;;;5078197;28;20319;-76
2022/12/22 16:36:13;;;;;;;;;;;7.80;99.90;;;;;;5078464;28;19951;-78
2022/12/22 16:38:38;;;;;;;;;;;7.80;99.90;;;;;;5058239;28;20337;-77
2022/12/22 16:41:04;;;;;;;;;;;7.80;99.90;;;;;;5057761;28;19974;-78
2022/12/22 16:43:30;;;;;;;;;;;7.80;99.90;;;;;;5078867;28;19930;-78
2022/12/22 16:45:56;;;;;;;;;;;7.70;99.90;;;;;;5076097;28;19984;-78
2022/12/22 16:48:48;;;;;;;;;;;7.70;99.90;;;;;;5075408;28;19935;-78
2022/12/22 16:51:19;;;;;;;;;;;7.70;99.90;;;;;;5070165;28;19925;-78
2022/12/22 16:53:45;;;;;;;;;;;7.60;99.90;;;;;;5076491;28;19929;-75
2022/12/22 16:56:19;;;;;;;;;;;7.70;99.90;;;;;;5076602;28;19924;-79
2022/12/22 16:58:45;;;;;;;;;;;7.60;99.90;;;;;;5074033;28;20391;-80
2022/12/22 17:01:30;;;;;;;;;;;7.60;99.90;;;;;;5076458;28;19924;-79
2022/12/22 17:03:59;;;;;;;;;;;7.60;99.90;;;;;;5072625;28;19992;-79
2022/12/22 17:06:25;;;;;;;;;;;7.60;99.90;;;;;;5066127;28;19928;-79
2022/12/22 17:08:50;;;;;;;;;;;7.60;99.90;;;;;;5075450;28;19924;-79
2022/12/22 17:11:18;;;;;;;;;;;7.60;99.90;;;;;;5075197;28;19925;-79
2022/12/22 17:13:44;;;;;;;;;;;7.60;99.90;;;;;;5074950;28;20271;-79
2022/12/22 17:16:20;;;;;;;;;;;7.60;99.90;;;;;;5072431;28;19933;-79
2022/12/22 17:18:46;;;;;;;;;;;7.60;99.90;;;;;;5074987;28;19928;-79
2022/12/22 17:21:12;;;;;;;;;;;7.60;99.90;;;;;;5074588;28;20671;-79
2022/12/22 17:23:41;;;;;;;;;;;7.60;99.90;;;;;;5068056;28;19924;-79
2022/12/22 17:26:08;;;;;;;;;;;7.60;99.90;;;;;;5072736;28;19924;-79
2022/12/22 17:28:35;;;;;;;;;;;7.60;99.90;;;;;;5072425;28;19924;-78
2022/12/22 17:31:00;;;;;;;;;;;7.60;99.90;;;;;;5075748;28;19932;-78
2022/12/22 17:33:26;;;;;;;;;;;7.60;99.90;;;;;;5072412;28;19925;-78
2022/12/22 17:35:52;;;;;;;;;;;7.60;99.90;;;;;;5070426;28;19947;-79
2022/12/22 17:38:18;;;;;;;;;;;7.60;99.90;;;;;;5085152;28;20303;-79
2022/12/22 17:40:45;;;;;;;;;;;7.60;99.90;;;;;;5077688;28;19925;-79
2022/12/22 17:43:12;;;;;;;;;;;7.60;99.90;;;;;;5074194;28;19931;-79
2022/12/22 17:45:38;;;;;;;;;;;7.60;99.90;;;;;;5079058;28;19924;-79
2022/12/22 17:48:04;;;;;;;;;;;7.50;99.90;;;;;;5079198;28;19975;-78
2022/12/22 17:50:29;;;;;;;;;;;7.60;99.90;;;;;;5077664;28;19929;-79
2022/12/22 17:52:56;;;;;;;;;;;7.60;99.90;;;;;;5070765;28;19924;-80
2022/12/22 17:55:23;;;;;;;;;;;7.60;99.90;;;;;;5068301;28;19928;-79
2022/12/22 17:57:49;;;;;;;;;;;7.60;99.90;;;;;;5076390;28;19992;-79
2022/12/22 18:00:23;;;;;;;;;;;7.60;99.90;;;;;;5078259;28;19960;-79
2022/12/22 18:02:49;;;;;;;;;;;7.60;99.90;;;;;;5078807;28;20308;-79
2022/12/22 18:05:16;;;;;;;;;;;7.60;99.90;;;;;;5077428;28;19929;-79
2022/12/22 18:07:42;;;;;;;;;;;7.60;99.90;;;;;;5077913;28;20012;-79
2022/12/22 18:10:28;;;;;;;;;;;7.60;99.90;;;;;;5081347;28;19925;-79
2022/12/22 18:12:54;;;;;;;;;;;7.60;99.90;;;;;;5072722;28;19940;-79
2022/12/22 18:15:20;;;;;;;;;;;7.60;99.90;;;;;;5079685;28;20011;-79